sensor_id;sensor_type;location;lat;lon;timestamp;P1;durP1;ratioP1;P2;durP2;ratioP2
11598;SDS011;5855;48.840;9.188;2023-08-24T00:00:38;6.90;;;6.00;;
11598;SDS011;5855;48.840;9.188;2023-08-24T00:03:05;6.75;;;6.05;;
11598;SDS011;5855;48.840;9.188;2023-08-24T00:05:33;9.90;;;6.35;;
11598;SDS011;5855;48.840;9.188;2023-08-24T00:08:02;9.27;;;6.10;;
11598;SDS011;5855;48.840;9.188;2023-08-24T00:10:29;7.68;;;6.03;;
11598;SDS011;5855;48.840;9.188;2023-08-24T00:12:56;6.75;;;5.90;;
11598;SDS011;5855;48.840;9.188;2023-08-24T00:15:23;7.15;;;5.93;;
11598;SDS011;5855;48.840;9.188;2023-08-24T00:17:51;7.32;;;5.60;;
11598;SDS011;5855;48.840;9.188;2023-08-24T00:20:18;6.90;;;5.88;;
11598;SDS011;5855;48.840;9.188;2023-08-24T00:22:45;6.78;;;6.13;;
11598;SDS011;5855;48.840;9.188;2023-08-24T00:25:13;8.02;;;6.47;;
11598;SDS011;5855;48.840;9.188;2023-08-24T00:27:41;10.90;;;6.03;;
11598;SDS011;5855;48.840;9.188;2023-08-24T00:30:09;12.10;;;6.07;;
11598;SDS011;5855;48.840;9.188;2023-08-24T00:32:36;8.70;;;6.35;;
11598;SDS011;5855;48.840;9.188;2023-08-24T00:35:05;6.85;;;5.97;;
11598;SDS011;5855;48.840;9.188;2023-08-24T00:37:35;7.45;;;6.35;;
11598;SDS011;5855;48.840;9.188;2023-08-24T00:40:02;9.05;;;6.28;;
11598;SDS011;5855;48.840;9.188;2023-08-24T00:42:36;8.30;;;6.55;;
11598;SDS011;5855;48.840;9.188;2023-08-24T00:45:04;8.57;;;6.00;;
11598;SDS011;5855;48.840;9.188;2023-08-24T00:47:32;7.88;;;6.35;;
11598;SDS011;5855;48.840;9.188;2023-08-24T00:49:59;6.53;;;5.93;;
11598;SDS011;5855;48.840;9.188;2023-08-24T00:52:30;7.82;;;6.15;;
11598;SDS011;5855;48.840;9.188;2023-08-24T00:54:57;9.20;;;6.13;;
11598;SDS011;5855;48.840;9.188;2023-08-24T00:57:25;8.43;;;6.20;;
11598;SDS011;5855;48.840;9.188;2023-08-24T00:59:53;7.18;;;6.30;;
11598;SDS011;5855;48.840;9.188;2023-08-24T01:02:20;7.72;;;6.10;;
11598;SDS011;5855;48.840;9.188;2023-08-24T01:04:47;8.23;;;6.30;;
11598;SDS011;5855;48.840;9.188;2023-08-24T01:07:14;7.50;;;6.18;;
11598;SDS011;5855;48.840;9.188;2023-08-24T01:09:43;8.60;;;6.18;;
11598;SDS011;5855;48.840;9.188;2023-08-24T01:12:12;9.13;;;6.28;;
11598;SDS011;5855;48.840;9.188;2023-08-24T01:14:47;6.88;;;6.18;;
11598;SDS011;5855;48.840;9.188;2023-08-24T01:17:22;7.30;;;5.90;;
11598;SDS011;5855;48.840;9.188;2023-08-24T01:19:52;6.68;;;6.00;;
11598;SDS011;5855;48.840;9.188;2023-08-24T01:22:23;8.32;;;6.38;;
11598;SDS011;5855;48.840;9.188;2023-08-24T01:25:05;8.40;;;6.43;;
11598;SDS011;5855;48.840;9.188;2023-08-24T01:27:35;7.95;;;6.38;;
11598;SDS011;5855;48.840;9.188;2023-08-24T01:30:03;8.55;;;6.60;;
11598;SDS011;5855;48.840;9.188;2023-08-24T01:32:31;9.07;;;6.60;;
11598;SDS011;5855;48.840;9.188;2023-08-24T01:34:58;8.70;;;6.60;;
11598;SDS011;5855;48.840;9.188;2023-08-24T01:37:25;8.63;;;6.78;;
11598;SDS011;5855;48.840;9.188;2023-08-24T01:39:54;7.50;;;6.32;;
11598;SDS011;5855;48.840;9.188;2023-08-24T01:42:28;7.15;;;6.45;;
11598;SDS011;5855;48.840;9.188;2023-08-24T01:44:59;7.05;;;6.15;;
11598;SDS011;5855;48.840;9.188;2023-08-24T01:47:29;7.82;;;5.97;;
11598;SDS011;5855;48.840;9.188;2023-08-24T01:49:56;6.75;;;5.90;;
11598;SDS011;5855;48.840;9.188;2023-08-24T01:52:24;7.13;;;6.20;;
11598;SDS011;5855;48.840;9.188;2023-08-24T01:54:52;7.65;;;5.72;;
11598;SDS011;5855;48.840;9.188;2023-08-24T01:57:19;7.13;;;6.43;;
11598;SDS011;5855;48.840;9.188;2023-08-24T01:59:46;10.32;;;6.55;;
11598;SDS011;5855;48.840;9.188;2023-08-24T02:02:14;6.72;;;6.13;;
11598;SDS011;5855;48.840;9.188;2023-08-24T02:04:41;6.70;;;5.97;;
11598;SDS011;5855;48.840;9.188;2023-08-24T02:07:07;8.63;;;6.43;;
11598;SDS011;5855;48.840;9.188;2023-08-24T02:09:34;9.30;;;6.55;;
11598;SDS011;5855;48.840;9.188;2023-08-24T02:12:01;7.40;;;6.63;;
11598;SDS011;5855;48.840;9.188;2023-08-24T02:14:28;8.35;;;6.00;;
11598;SDS011;5855;48.840;9.188;2023-08-24T02:16:55;8.27;;;5.68;;
11598;SDS011;5855;48.840;9.188;2023-08-24T02:19:24;7.93;;;6.25;;
11598;SDS011;5855;48.840;9.188;2023-08-24T02:21:50;7.65;;;6.90;;
11598;SDS011;5855;48.840;9.188;2023-08-24T02:24:17;7.43;;;5.82;;
11598;SDS011;5855;48.840;9.188;2023-08-24T02:26:44;6.30;;;5.70;;
11598;SDS011;5855;48.840;9.188;2023-08-24T02:29:12;7.57;;;6.38;;
11598;SDS011;5855;48.840;9.188;2023-08-24T02:31:39;6.60;;;5.93;;
11598;SDS011;5855;48.840;9.188;2023-08-24T02:34:06;6.88;;;6.15;;
11598;SDS011;5855;48.840;9.188;2023-08-24T02:36:34;6.85;;;6.13;;
11598;SDS011;5855;48.840;9.188;2023-08-24T02:39:01;7.40;;;5.82;;
11598;SDS011;5855;48.840;9.188;2023-08-24T02:41:30;7.38;;;6.45;;
11598;SDS011;5855;48.840;9.188;2023-08-24T02:43:56;7.30;;;6.60;;
11598;SDS011;5855;48.840;9.188;2023-08-24T02:46:23;7.50;;;6.70;;
11598;SDS011;5855;48.840;9.188;2023-08-24T02:48:50;7.35;;;6.55;;
11598;SDS011;5855;48.840;9.188;2023-08-24T02:51:17;7.47;;;6.63;;
11598;SDS011;5855;48.840;9.188;2023-08-24T02:53:47;7.68;;;6.20;;
11598;SDS011;5855;48.840;9.188;2023-08-24T02:56:13;7.50;;;6.80;;
11598;SDS011;5855;48.840;9.188;2023-08-24T02:58:40;9.40;;;6.85;;
11598;SDS011;5855;48.840;9.188;2023-08-24T03:01:07;8.02;;;6.50;;
11598;SDS011;5855;48.840;9.188;2023-08-24T03:03:34;9.65;;;6.18;;
11598;SDS011;5855;48.840;9.188;2023-08-24T03:06:02;7.07;;;6.20;;
11598;SDS011;5855;48.840;9.188;2023-08-24T03:08:31;7.22;;;6.53;;
11598;SDS011;5855;48.840;9.188;2023-08-24T03:11:00;7.35;;;6.40;;
11598;SDS011;5855;48.840;9.188;2023-08-24T03:13:28;6.78;;;5.60;;
11598;SDS011;5855;48.840;9.188;2023-08-24T03:15:55;7.50;;;6.38;;
11598;SDS011;5855;48.840;9.188;2023-08-24T03:18:22;7.55;;;6.78;;
11598;SDS011;5855;48.840;9.188;2023-08-24T03:20:49;8.77;;;7.85;;
11598;SDS011;5855;48.840;9.188;2023-08-24T03:23:16;10.93;;;8.32;;
11598;SDS011;5855;48.840;9.188;2023-08-24T03:25:43;14.23;;;9.60;;
11598;SDS011;5855;48.840;9.188;2023-08-24T03:28:11;10.57;;;8.10;;
11598;SDS011;5855;48.840;9.188;2023-08-24T03:30:39;10.75;;;7.63;;
11598;SDS011;5855;48.840;9.188;2023-08-24T03:33:11;8.43;;;6.88;;
11598;SDS011;5855;48.840;9.188;2023-08-24T03:35:38;7.50;;;6.75;;
11598;SDS011;5855;48.840;9.188;2023-08-24T03:38:05;7.57;;;6.38;;
11598;SDS011;5855;48.840;9.188;2023-08-24T03:40:32;7.57;;;6.40;;
11598;SDS011;5855;48.840;9.188;2023-08-24T03:43:00;7.88;;;6.68;;
11598;SDS011;5855;48.840;9.188;2023-08-24T03:45:29;7.72;;;6.97;;
11598;SDS011;5855;48.840;9.188;2023-08-24T03:47:55;8.40;;;6.30;;
11598;SDS011;5855;48.840;9.188;2023-08-24T03:50:22;7.45;;;5.85;;
11598;SDS011;5855;48.840;9.188;2023-08-24T03:52:51;7.65;;;6.85;;
11598;SDS011;5855;48.840;9.188;2023-08-24T03:55:19;8.38;;;6.60;;
11598;SDS011;5855;48.840;9.188;2023-08-24T03:57:46;8.82;;;6.75;;
11598;SDS011;5855;48.840;9.188;2023-08-24T04:00:13;8.88;;;6.63;;
11598;SDS011;5855;48.840;9.188;2023-08-24T04:02:43;7.65;;;6.93;;
11598;SDS011;5855;48.840;9.188;2023-08-24T04:05:10;7.78;;;6.63;;
11598;SDS011;5855;48.840;9.188;2023-08-24T04:07:38;7.05;;;6.35;;
11598;SDS011;5855;48.840;9.188;2023-08-24T04:10:05;10.30;;;7.22;;
11598;SDS011;5855;48.840;9.188;2023-08-24T04:12:33;8.77;;;6.30;;
11598;SDS011;5855;48.840;9.188;2023-08-24T04:15:00;7.35;;;6.15;;
11598;SDS011;5855;48.840;9.188;2023-08-24T04:17:27;9.57;;;6.55;;
11598;SDS011;5855;48.840;9.188;2023-08-24T04:19:55;7.95;;;6.55;;
11598;SDS011;5855;48.840;9.188;2023-08-24T04:22:22;7.10;;;6.40;;
11598;SDS011;5855;48.840;9.188;2023-08-24T04:24:48;8.45;;;6.78;;
11598;SDS011;5855;48.840;9.188;2023-08-24T04:27:15;7.32;;;6.50;;
11598;SDS011;5855;48.840;9.188;2023-08-24T04:29:42;8.80;;;6.82;;
11598;SDS011;5855;48.840;9.188;2023-08-24T04:32:09;9.25;;;6.85;;
11598;SDS011;5855;48.840;9.188;2023-08-24T04:34:36;7.78;;;6.47;;
11598;SDS011;5855;48.840;9.188;2023-08-24T04:37:05;7.22;;;6.53;;
11598;SDS011;5855;48.840;9.188;2023-08-24T04:39:32;7.50;;;6.30;;
11598;SDS011;5855;48.840;9.188;2023-08-24T04:41:59;7.13;;;5.65;;
11598;SDS011;5855;48.840;9.188;2023-08-24T04:44:27;6.75;;;6.15;;
11598;SDS011;5855;48.840;9.188;2023-08-24T04:46:54;6.82;;;6.22;;
11598;SDS011;5855;48.840;9.188;2023-08-24T04:49:21;6.72;;;6.03;;
11598;SDS011;5855;48.840;9.188;2023-08-24T04:51:48;6.80;;;6.10;;
11598;SDS011;5855;48.840;9.188;2023-08-24T04:54:16;7.47;;;6.68;;
11598;SDS011;5855;48.840;9.188;2023-08-24T04:56:43;9.65;;;6.63;;
11598;SDS011;5855;48.840;9.188;2023-08-24T04:59:10;8.02;;;6.50;;
11598;SDS011;5855;48.840;9.188;2023-08-24T05:01:37;7.95;;;6.90;;
11598;SDS011;5855;48.840;9.188;2023-08-24T05:04:04;8.93;;;6.38;;
11598;SDS011;5855;48.840;9.188;2023-08-24T05:06:31;10.73;;;6.78;;
11598;SDS011;5855;48.840;9.188;2023-08-24T05:08:57;7.85;;;6.57;;
11598;SDS011;5855;48.840;9.188;2023-08-24T05:11:26;12.60;;;7.43;;
11598;SDS011;5855;48.840;9.188;2023-08-24T05:13:55;7.32;;;6.45;;
11598;SDS011;5855;48.840;9.188;2023-08-24T05:16:22;7.65;;;6.60;;
11598;SDS011;5855;48.840;9.188;2023-08-24T05:18:49;7.95;;;6.30;;
11598;SDS011;5855;48.840;9.188;2023-08-24T05:21:16;6.55;;;5.93;;
11598;SDS011;5855;48.840;9.188;2023-08-24T05:23:43;7.10;;;6.40;;
11598;SDS011;5855;48.840;9.188;2023-08-24T05:26:10;7.03;;;6.20;;
11598;SDS011;5855;48.840;9.188;2023-08-24T05:28:38;8.88;;;6.57;;
11598;SDS011;5855;48.840;9.188;2023-08-24T05:31:05;7.45;;;6.72;;
11598;SDS011;5855;48.840;9.188;2023-08-24T05:33:31;8.90;;;6.15;;
11598;SDS011;5855;48.840;9.188;2023-08-24T05:35:58;7.28;;;6.28;;
11598;SDS011;5855;48.840;9.188;2023-08-24T05:38:25;7.57;;;6.60;;
11598;SDS011;5855;48.840;9.188;2023-08-24T05:40:52;7.60;;;6.55;;
11598;SDS011;5855;48.840;9.188;2023-08-24T05:43:19;7.25;;;6.55;;
11598;SDS011;5855;48.840;9.188;2023-08-24T05:45:47;8.27;;;6.30;;
11598;SDS011;5855;48.840;9.188;2023-08-24T05:48:14;8.82;;;6.20;;
11598;SDS011;5855;48.840;9.188;2023-08-24T05:50:44;7.40;;;6.38;;
11598;SDS011;5855;48.840;9.188;2023-08-24T05:53:12;9.75;;;6.10;;
11598;SDS011;5855;48.840;9.188;2023-08-24T05:55:39;8.02;;;6.15;;
11598;SDS011;5855;48.840;9.188;2023-08-24T05:58:06;9.30;;;6.43;;
11598;SDS011;5855;48.840;9.188;2023-08-24T06:00:34;7.15;;;5.90;;
11598;SDS011;5855;48.840;9.188;2023-08-24T06:03:03;8.70;;;6.25;;
11598;SDS011;5855;48.840;9.188;2023-08-24T06:05:30;7.93;;;6.13;;
11598;SDS011;5855;48.840;9.188;2023-08-24T06:07:57;8.05;;;6.03;;
11598;SDS011;5855;48.840;9.188;2023-08-24T06:10:24;9.45;;;6.03;;
11598;SDS011;5855;48.840;9.188;2023-08-24T06:12:52;9.52;;;6.30;;
11598;SDS011;5855;48.840;9.188;2023-08-24T06:15:19;11.63;;;6.55;;
11598;SDS011;5855;48.840;9.188;2023-08-24T06:17:49;9.65;;;5.68;;
11598;SDS011;5855;48.840;9.188;2023-08-24T06:20:17;6.63;;;5.80;;
11598;SDS011;5855;48.840;9.188;2023-08-24T06:22:45;9.95;;;5.72;;
11598;SDS011;5855;48.840;9.188;2023-08-24T06:25:12;8.20;;;6.28;;
11598;SDS011;5855;48.840;9.188;2023-08-24T06:27:39;8.73;;;6.13;;
11598;SDS011;5855;48.840;9.188;2023-08-24T06:30:07;8.23;;;6.57;;
11598;SDS011;5855;48.840;9.188;2023-08-24T06:32:34;9.32;;;6.22;;
11598;SDS011;5855;48.840;9.188;2023-08-24T06:35:02;10.32;;;6.13;;
11598;SDS011;5855;48.840;9.188;2023-08-24T06:37:31;9.80;;;5.75;;
11598;SDS011;5855;48.840;9.188;2023-08-24T06:39:57;8.57;;;6.15;;
11598;SDS011;5855;48.840;9.188;2023-08-24T06:42:24;6.95;;;4.80;;
11598;SDS011;5855;48.840;9.188;2023-08-24T06:44:51;7.13;;;5.38;;
11598;SDS011;5855;48.840;9.188;2023-08-24T06:47:19;8.57;;;5.30;;
11598;SDS011;5855;48.840;9.188;2023-08-24T06:49:46;7.90;;;5.53;;
11598;SDS011;5855;48.840;9.188;2023-08-24T06:52:13;9.07;;;5.72;;
11598;SDS011;5855;48.840;9.188;2023-08-24T06:54:41;10.05;;;5.43;;
11598;SDS011;5855;48.840;9.188;2023-08-24T06:57:08;8.65;;;5.18;;
11598;SDS011;5855;48.840;9.188;2023-08-24T06:59:34;6.18;;;5.50;;
11598;SDS011;5855;48.840;9.188;2023-08-24T07:02:01;10.90;;;5.38;;
11598;SDS011;5855;48.840;9.188;2023-08-24T07:04:29;6.75;;;5.35;;
11598;SDS011;5855;48.840;9.188;2023-08-24T07:06:56;10.27;;;4.90;;
11598;SDS011;5855;48.840;9.188;2023-08-24T07:09:23;7.18;;;4.70;;
11598;SDS011;5855;48.840;9.188;2023-08-24T07:11:51;6.97;;;5.28;;
11598;SDS011;5855;48.840;9.188;2023-08-24T07:14:18;9.60;;;4.78;;
11598;SDS011;5855;48.840;9.188;2023-08-24T07:16:45;7.47;;;4.85;;
11598;SDS011;5855;48.840;9.188;2023-08-24T07:19:12;9.63;;;4.43;;
11598;SDS011;5855;48.840;9.188;2023-08-24T07:21:38;8.05;;;4.90;;
11598;SDS011;5855;48.840;9.188;2023-08-24T07:24:05;6.72;;;4.40;;
11598;SDS011;5855;48.840;9.188;2023-08-24T07:26:33;8.48;;;4.50;;
11598;SDS011;5855;48.840;9.188;2023-08-24T07:29:01;9.52;;;4.47;;
11598;SDS011;5855;48.840;9.188;2023-08-24T07:31:28;7.53;;;4.15;;
11598;SDS011;5855;48.840;9.188;2023-08-24T07:33:55;7.05;;;3.83;;
11598;SDS011;5855;48.840;9.188;2023-08-24T07:36:22;5.95;;;4.05;;
11598;SDS011;5855;48.840;9.188;2023-08-24T07:38:49;4.07;;;3.40;;
11598;SDS011;5855;48.840;9.188;2023-08-24T07:41:16;5.38;;;3.90;;
11598;SDS011;5855;48.840;9.188;2023-08-24T07:43:43;8.13;;;3.50;;
11598;SDS011;5855;48.840;9.188;2023-08-24T07:46:11;6.50;;;3.92;;
11598;SDS011;5855;48.840;9.188;2023-08-24T07:48:38;3.80;;;3.40;;
11598;SDS011;5855;48.840;9.188;2023-08-24T07:51:07;6.30;;;3.67;;
11598;SDS011;5855;48.840;9.188;2023-08-24T07:53:34;8.88;;;3.58;;
11598;SDS011;5855;48.840;9.188;2023-08-24T07:56:01;5.03;;;3.55;;
11598;SDS011;5855;48.840;9.188;2023-08-24T07:58:28;4.13;;;3.10;;
11598;SDS011;5855;48.840;9.188;2023-08-24T08:00:58;4.75;;;3.50;;
11598;SDS011;5855;48.840;9.188;2023-08-24T08:03:27;7.03;;;3.60;;
11598;SDS011;5855;48.840;9.188;2023-08-24T08:05:55;4.43;;;3.53;;
11598;SDS011;5855;48.840;9.188;2023-08-24T08:08:23;5.68;;;3.45;;
11598;SDS011;5855;48.840;9.188;2023-08-24T08:10:57;5.10;;;3.53;;
11598;SDS011;5855;48.840;9.188;2023-08-24T08:13:24;5.60;;;3.22;;
11598;SDS011;5855;48.840;9.188;2023-08-24T08:15:51;3.97;;;3.10;;
11598;SDS011;5855;48.840;9.188;2023-08-24T08:18:18;6.57;;;3.08;;
11598;SDS011;5855;48.840;9.188;2023-08-24T08:20:50;6.55;;;3.70;;
11598;SDS011;5855;48.840;9.188;2023-08-24T08:23:17;2.97;;;2.72;;
11598;SDS011;5855;48.840;9.188;2023-08-24T08:25:44;5.75;;;3.22;;
11598;SDS011;5855;48.840;9.188;2023-08-24T08:28:10;4.97;;;3.13;;
11598;SDS011;5855;48.840;9.188;2023-08-24T08:30:37;6.45;;;3.38;;
11598;SDS011;5855;48.840;9.188;2023-08-24T08:33:04;6.32;;;2.97;;
11598;SDS011;5855;48.840;9.188;2023-08-24T08:35:31;5.43;;;2.90;;
11598;SDS011;5855;48.840;9.188;2023-08-24T08:37:59;5.80;;;2.97;;
11598;SDS011;5855;48.840;9.188;2023-08-24T08:40:27;6.25;;;3.30;;
11598;SDS011;5855;48.840;9.188;2023-08-24T08:42:56;3.03;;;2.72;;
11598;SDS011;5855;48.840;9.188;2023-08-24T08:45:24;5.47;;;2.83;;
11598;SDS011;5855;48.840;9.188;2023-08-24T08:47:53;7.72;;;3.28;;
11598;SDS011;5855;48.840;9.188;2023-08-24T08:50:24;6.43;;;3.17;;
11598;SDS011;5855;48.840;9.188;2023-08-24T08:52:53;4.97;;;2.90;;
11598;SDS011;5855;48.840;9.188;2023-08-24T08:55:21;6.07;;;2.90;;
11598;SDS011;5855;48.840;9.188;2023-08-24T08:57:49;6.00;;;2.75;;
11598;SDS011;5855;48.840;9.188;2023-08-24T09:00:17;7.70;;;3.22;;
11598;SDS011;5855;48.840;9.188;2023-08-24T09:02:45;5.32;;;3.10;;
11598;SDS011;5855;48.840;9.188;2023-08-24T09:05:14;5.10;;;3.00;;
11598;SDS011;5855;48.840;9.188;2023-08-24T09:07:41;6.28;;;2.83;;
11598;SDS011;5855;48.840;9.188;2023-08-24T09:10:08;4.80;;;2.95;;
11598;SDS011;5855;48.840;9.188;2023-08-24T09:12:37;6.15;;;3.28;;
11598;SDS011;5855;48.840;9.188;2023-08-24T09:15:04;5.47;;;2.90;;
11598;SDS011;5855;48.840;9.188;2023-08-24T09:17:32;7.13;;;3.17;;
11598;SDS011;5855;48.840;9.188;2023-08-24T09:19:59;6.35;;;2.83;;
11598;SDS011;5855;48.840;9.188;2023-08-24T09:22:34;4.60;;;3.22;;
11598;SDS011;5855;48.840;9.188;2023-08-24T09:25:02;4.75;;;2.90;;
11598;SDS011;5855;48.840;9.188;2023-08-24T09:27:31;5.25;;;2.97;;
11598;SDS011;5855;48.840;9.188;2023-08-24T09:29:59;6.45;;;3.03;;
11598;SDS011;5855;48.840;9.188;2023-08-24T09:32:27;3.53;;;2.70;;
11598;SDS011;5855;48.840;9.188;2023-08-24T09:34:55;6.68;;;3.03;;
11598;SDS011;5855;48.840;9.188;2023-08-24T09:37:22;4.38;;;3.00;;
11598;SDS011;5855;48.840;9.188;2023-08-24T09:39:50;5.07;;;2.78;;
11598;SDS011;5855;48.840;9.188;2023-08-24T09:42:34;8.35;;;2.80;;
11598;SDS011;5855;48.840;9.188;2023-08-24T09:45:06;5.65;;;3.00;;
11598;SDS011;5855;48.840;9.188;2023-08-24T09:47:35;6.60;;;2.90;;
11598;SDS011;5855;48.840;9.188;2023-08-24T09:50:02;6.82;;;3.22;;
11598;SDS011;5855;48.840;9.188;2023-08-24T09:52:31;5.65;;;2.63;;
11598;SDS011;5855;48.840;9.188;2023-08-24T09:54:59;5.50;;;3.40;;
11598;SDS011;5855;48.840;9.188;2023-08-24T09:57:30;5.40;;;2.72;;
11598;SDS011;5855;48.840;9.188;2023-08-24T10:00:01;8.95;;;3.13;;
11598;SDS011;5855;48.840;9.188;2023-08-24T10:02:36;4.95;;;2.78;;
11598;SDS011;5855;48.840;9.188;2023-08-24T10:05:07;4.25;;;2.70;;
11598;SDS011;5855;48.840;9.188;2023-08-24T10:07:36;9.32;;;2.70;;
11598;SDS011;5855;48.840;9.188;2023-08-24T10:10:04;3.88;;;2.45;;
11598;SDS011;5855;48.840;9.188;2023-08-24T10:12:36;4.18;;;2.70;;
11598;SDS011;5855;48.840;9.188;2023-08-24T10:15:10;7.70;;;2.83;;
11598;SDS011;5855;48.840;9.188;2023-08-24T10:17:39;7.80;;;3.15;;
11598;SDS011;5855;48.840;9.188;2023-08-24T10:20:06;7.63;;;3.10;;
11598;SDS011;5855;48.840;9.188;2023-08-24T10:22:36;7.80;;;2.97;;
11598;SDS011;5855;48.840;9.188;2023-08-24T10:25:06;5.32;;;2.90;;
11598;SDS011;5855;48.840;9.188;2023-08-24T10:27:33;5.30;;;3.10;;
11598;SDS011;5855;48.840;9.188;2023-08-24T10:30:01;4.85;;;3.10;;
11598;SDS011;5855;48.840;9.188;2023-08-24T10:32:28;4.28;;;2.80;;
11598;SDS011;5855;48.840;9.188;2023-08-24T10:34:58;6.93;;;2.90;;
11598;SDS011;5855;48.840;9.188;2023-08-24T10:37:25;4.30;;;3.22;;
11598;SDS011;5855;48.840;9.188;2023-08-24T10:39:53;5.65;;;2.70;;
11598;SDS011;5855;48.840;9.188;2023-08-24T10:42:20;7.45;;;3.10;;
11598;SDS011;5855;48.840;9.188;2023-08-24T10:44:47;5.95;;;3.05;;
11598;SDS011;5855;48.840;9.188;2023-08-24T10:47:14;6.03;;;3.00;;
11598;SDS011;5855;48.840;9.188;2023-08-24T10:49:45;6.38;;;2.53;;
11598;SDS011;5855;48.840;9.188;2023-08-24T10:52:26;5.80;;;3.03;;
11598;SDS011;5855;48.840;9.188;2023-08-24T10:54:57;5.35;;;3.05;;
11598;SDS011;5855;48.840;9.188;2023-08-24T10:57:35;3.85;;;2.80;;
11598;SDS011;5855;48.840;9.188;2023-08-24T11:00:04;6.03;;;3.05;;
11598;SDS011;5855;48.840;9.188;2023-08-24T11:02:42;6.78;;;3.00;;
11598;SDS011;5855;48.840;9.188;2023-08-24T11:05:19;5.28;;;2.90;;
11598;SDS011;5855;48.840;9.188;2023-08-24T11:07:49;4.10;;;2.80;;
11598;SDS011;5855;48.840;9.188;2023-08-24T11:10:17;6.32;;;3.03;;
11598;SDS011;5855;48.840;9.188;2023-08-24T11:15:30;4.13;;;2.42;;
11598;SDS011;5855;48.840;9.188;2023-08-24T11:18:14;3.50;;;2.83;;
11598;SDS011;5855;48.840;9.188;2023-08-24T11:20:47;3.03;;;2.72;;
11598;SDS011;5855;48.840;9.188;2023-08-24T11:23:15;2.70;;;2.40;;
11598;SDS011;5855;48.840;9.188;2023-08-24T11:25:43;3.60;;;2.38;;
11598;SDS011;5855;48.840;9.188;2023-08-24T11:28:10;4.63;;;2.63;;
11598;SDS011;5855;48.840;9.188;2023-08-24T11:30:36;5.38;;;3.28;;
11598;SDS011;5855;48.840;9.188;2023-08-24T11:33:04;5.15;;;2.83;;
11598;SDS011;5855;48.840;9.188;2023-08-24T11:35:34;3.85;;;2.60;;
11598;SDS011;5855;48.840;9.188;2023-08-24T11:38:03;5.85;;;3.00;;
11598;SDS011;5855;48.840;9.188;2023-08-24T11:40:30;4.82;;;2.80;;
11598;SDS011;5855;48.840;9.188;2023-08-24T11:42:57;7.20;;;3.15;;
11598;SDS011;5855;48.840;9.188;2023-08-24T11:45:29;5.28;;;2.78;;
11598;SDS011;5855;48.840;9.188;2023-08-24T11:47:57;5.07;;;2.78;;
11598;SDS011;5855;48.840;9.188;2023-08-24T11:50:25;7.32;;;2.63;;
11598;SDS011;5855;48.840;9.188;2023-08-24T11:52:52;3.92;;;2.40;;
11598;SDS011;5855;48.840;9.188;2023-08-24T11:55:22;3.72;;;2.50;;
11598;SDS011;5855;48.840;9.188;2023-08-24T11:57:49;3.95;;;2.40;;
11598;SDS011;5855;48.840;9.188;2023-08-24T12:00:16;3.25;;;2.40;;
11598;SDS011;5855;48.840;9.188;2023-08-24T12:02:44;4.10;;;2.55;;
11598;SDS011;5855;48.840;9.188;2023-08-24T12:05:20;2.92;;;2.42;;
11598;SDS011;5855;48.840;9.188;2023-08-24T12:07:48;4.68;;;2.47;;
11598;SDS011;5855;48.840;9.188;2023-08-24T12:10:15;3.15;;;2.50;;
11598;SDS011;5855;48.840;9.188;2023-08-24T12:12:43;4.60;;;2.40;;
11598;SDS011;5855;48.840;9.188;2023-08-24T12:15:17;4.97;;;2.60;;
11598;SDS011;5855;48.840;9.188;2023-08-24T12:17:45;3.45;;;2.60;;
11598;SDS011;5855;48.840;9.188;2023-08-24T12:20:17;5.28;;;2.85;;
11598;SDS011;5855;48.840;9.188;2023-08-24T12:22:49;3.75;;;2.38;;
11598;SDS011;5855;48.840;9.188;2023-08-24T12:25:23;4.45;;;2.70;;
11598;SDS011;5855;48.840;9.188;2023-08-24T12:27:52;4.30;;;2.45;;
11598;SDS011;5855;48.840;9.188;2023-08-24T12:30:42;10.73;;;2.63;;
11598;SDS011;5855;48.840;9.188;2023-08-24T12:33:20;3.75;;;2.40;;
11598;SDS011;5855;48.840;9.188;2023-08-24T12:35:47;2.78;;;2.22;;
11598;SDS011;5855;48.840;9.188;2023-08-24T12:38:14;2.63;;;2.42;;
11598;SDS011;5855;48.840;9.188;2023-08-24T12:40:41;3.10;;;2.33;;
11598;SDS011;5855;48.840;9.188;2023-08-24T12:43:09;4.93;;;2.45;;
11598;SDS011;5855;48.840;9.188;2023-08-24T12:45:36;5.60;;;2.67;;
11598;SDS011;5855;48.840;9.188;2023-08-24T12:48:03;3.80;;;2.30;;
11598;SDS011;5855;48.840;9.188;2023-08-24T12:50:33;5.00;;;2.60;;
11598;SDS011;5855;48.840;9.188;2023-08-24T12:53:00;2.58;;;2.20;;
11598;SDS011;5855;48.840;9.188;2023-08-24T12:55:28;3.50;;;2.40;;
11598;SDS011;5855;48.840;9.188;2023-08-24T12:57:55;5.57;;;2.72;;
11598;SDS011;5855;48.840;9.188;2023-08-24T13:00:23;5.68;;;2.72;;
11598;SDS011;5855;48.840;9.188;2023-08-24T13:02:51;5.13;;;2.90;;
11598;SDS011;5855;48.840;9.188;2023-08-24T13:05:18;7.75;;;2.90;;
11598;SDS011;5855;48.840;9.188;2023-08-24T13:07:45;6.35;;;3.00;;
11598;SDS011;5855;48.840;9.188;2023-08-24T13:10:12;5.65;;;2.70;;
11598;SDS011;5855;48.840;9.188;2023-08-24T13:12:39;5.13;;;2.67;;
11598;SDS011;5855;48.840;9.188;2023-08-24T13:15:07;5.28;;;3.10;;
11598;SDS011;5855;48.840;9.188;2023-08-24T13:17:36;7.47;;;3.15;;
11598;SDS011;5855;48.840;9.188;2023-08-24T13:20:03;8.07;;;3.00;;
11598;SDS011;5855;48.840;9.188;2023-08-24T13:22:31;9.25;;;3.40;;
11598;SDS011;5855;48.840;9.188;2023-08-24T13:24:58;7.03;;;3.10;;
11598;SDS011;5855;48.840;9.188;2023-08-24T13:27:25;9.55;;;3.30;;
11598;SDS011;5855;48.840;9.188;2023-08-24T13:29:51;7.63;;;3.17;;
11598;SDS011;5855;48.840;9.188;2023-08-24T13:32:21;7.07;;;3.25;;
11598;SDS011;5855;48.840;9.188;2023-08-24T13:34:49;6.45;;;3.38;;
11598;SDS011;5855;48.840;9.188;2023-08-24T13:37:16;9.27;;;3.45;;
11598;SDS011;5855;48.840;9.188;2023-08-24T13:39:43;10.48;;;3.35;;
11598;SDS011;5855;48.840;9.188;2023-08-24T13:42:10;5.28;;;3.20;;
11598;SDS011;5855;48.840;9.188;2023-08-24T13:44:38;7.90;;;3.10;;
11598;SDS011;5855;48.840;9.188;2023-08-24T13:47:04;5.38;;;3.42;;
11598;SDS011;5855;48.840;9.188;2023-08-24T13:49:31;7.03;;;3.00;;
11598;SDS011;5855;48.840;9.188;2023-08-24T13:51:59;9.68;;;3.00;;
11598;SDS011;5855;48.840;9.188;2023-08-24T13:54:26;8.52;;;3.00;;
11598;SDS011;5855;48.840;9.188;2023-08-24T13:56:55;8.35;;;2.92;;
11598;SDS011;5855;48.840;9.188;2023-08-24T13:59:23;9.57;;;2.90;;
11598;SDS011;5855;48.840;9.188;2023-08-24T14:01:50;8.13;;;3.28;;
11598;SDS011;5855;48.840;9.188;2023-08-24T14:04:17;5.40;;;3.10;;
11598;SDS011;5855;48.840;9.188;2023-08-24T14:06:44;6.30;;;3.10;;
11598;SDS011;5855;48.840;9.188;2023-08-24T14:09:14;8.05;;;3.10;;
11598;SDS011;5855;48.840;9.188;2023-08-24T14:11:41;6.00;;;3.05;;
11598;SDS011;5855;48.840;9.188;2023-08-24T14:14:08;5.03;;;2.50;;
11598;SDS011;5855;48.840;9.188;2023-08-24T14:16:35;7.05;;;2.72;;
11598;SDS011;5855;48.840;9.188;2023-08-24T14:19:02;5.60;;;2.72;;
11598;SDS011;5855;48.840;9.188;2023-08-24T14:21:29;5.13;;;2.72;;
11598;SDS011;5855;48.840;9.188;2023-08-24T14:23:56;8.07;;;3.25;;
11598;SDS011;5855;48.840;9.188;2023-08-24T14:26:25;4.60;;;3.10;;
11598;SDS011;5855;48.840;9.188;2023-08-24T14:28:52;7.80;;;3.20;;
11598;SDS011;5855;48.840;9.188;2023-08-24T14:31:21;6.82;;;3.20;;
11598;SDS011;5855;48.840;9.188;2023-08-24T14:33:49;7.18;;;2.90;;
11598;SDS011;5855;48.840;9.188;2023-08-24T14:36:16;6.43;;;3.25;;
11598;SDS011;5855;48.840;9.188;2023-08-24T14:38:44;7.20;;;3.08;;
11598;SDS011;5855;48.840;9.188;2023-08-24T14:41:11;6.45;;;3.22;;
11598;SDS011;5855;48.840;9.188;2023-08-24T14:43:41;6.97;;;3.22;;
11598;SDS011;5855;48.840;9.188;2023-08-24T14:46:08;6.47;;;3.20;;
11598;SDS011;5855;48.840;9.188;2023-08-24T14:48:35;5.53;;;3.20;;
11598;SDS011;5855;48.840;9.188;2023-08-24T14:51:02;4.43;;;3.00;;
11598;SDS011;5855;48.840;9.188;2023-08-24T14:53:29;5.10;;;2.80;;
11598;SDS011;5855;48.840;9.188;2023-08-24T14:55:56;8.15;;;3.17;;
11598;SDS011;5855;48.840;9.188;2023-08-24T14:58:23;12.63;;;3.90;;
11598;SDS011;5855;48.840;9.188;2023-08-24T15:00:53;49.20;;;5.72;;
11598;SDS011;5855;48.840;9.188;2023-08-24T15:03:22;21.50;;;4.82;;
11598;SDS011;5855;48.840;9.188;2023-08-24T15:05:56;19.55;;;5.32;;
11598;SDS011;5855;48.840;9.188;2023-08-24T15:08:24;7.28;;;3.50;;